Time;durP1;ratioP1;P1;durP2;ratioP2;P2;SDS_P1;SDS_P2;PMS_P1;PMS_P2;Temp;Humidity;BMP_temperature;BMP_pressure;BME280_temperature;BME280_humidity;BME280_pressure;Samples;Min_cycle;Max_cycle;Signal;HPM_P1;HPM_P2
2024/01/17 00:12:25;;;;;;;;;;;;;;;;;;;;;
2024/01/17 00:15:48;;;;;;;14.80;9.60;;;-1.10;99.90;;;;;;6140898;23;20165;-90
2024/01/17 00:21:47;;;;;;;19.45;13.00;;;-1.20;99.90;;;;;;6136504;23;20191;-88
2024/01/17 00:24:41;;;;;;;18.23;11.57;;;-1.20;99.90;;;;;;6137292;23;20206;-90
2024/01/17 00:27:43;;;;;;;18.65;10.48;;;-1.20;99.90;;;;;;6131324;23;20196;-89
2024/01/17 00:30:35;;;;;;;14.82;9.50;;;-0.80;99.90;;;;;;6118427;23;20168;-90
2024/01/17 00:36:35;;;;;;;14.48;8.82;;;-1.20;99.90;;;;;;6146281;23;20173;-89
2024/01/17 00:39:39;;;;;;;17.42;9.77;;;-1.30;99.90;;;;;;6131689;23;20166;-88
2024/01/17 00:42:31;;;;;;;11.00;7.70;;;-1.20;99.90;;;;;;6133042;23;20224;-88
2024/01/17 00:45:14;;;;;;;15.82;9.90;;;-1.20;99.90;;;;;;6132720;23;20193;-90
2024/01/17 00:48:03;;;;;;;11.57;8.07;;;-1.10;99.90;;;;;;6132730;23;20197;-89
2024/01/17 00:54:10;;;;;;;17.58;9.75;;;-1.30;96.70;;;;;;6131701;23;20181;-89
2024/01/17 01:00:11;;;;;;;14.55;9.18;;;-1.30;99.90;;;;;;6130011;23;20180;-89
2024/01/17 01:06:21;;;;;;;10.48;8.35;;;-1.50;99.90;;;;;;6139713;23;20252;-89
2024/01/17 01:09:22;;;;;;;12.52;8.30;;;-1.60;99.90;;;;;;6133498;23;20169;-90
2024/01/17 01:15:15;;;;;;;13.30;8.93;;;-1.60;99.90;;;;;;6131511;23;20185;-89
2024/01/17 01:18:13;;;;;;;12.68;7.88;;;-1.70;99.90;;;;;;6131801;23;20585;-90
2024/01/17 01:20:57;;;;;;;14.07;8.35;;;-1.70;99.90;;;;;;6131964;23;20184;-90
2024/01/17 01:23:55;;;;;;;15.55;9.35;;;-1.80;99.90;;;;;;6141601;23;20183;-89
2024/01/17 01:26:51;;;;;;;13.60;8.85;;;-1.80;99.90;;;;;;6155045;23;20193;-88
2024/01/17 01:29:46;;;;;;;11.60;8.52;;;-1.00;99.90;;;;;;6148900;23;20177;-89
2024/01/17 01:32:34;;;;;;;13.20;8.95;;;-1.70;99.90;;;;;;6134644;23;20173;-90
2024/01/17 01:35:32;;;;;;;10.20;9.07;;;-1.70;99.90;;;;;;6140688;23;20185;-90
2024/01/17 01:43:54;;;;;;;14.32;9.05;;;-1.70;99.90;;;;;;6126993;23;20189;-90
2024/01/17 01:46:41;;;;;;;13.57;9.20;;;-1.70;99.90;;;;;;6132748;23;20189;-90
2024/01/17 01:49:35;;;;;;;14.25;9.93;;;-1.80;99.90;;;;;;6152665;23;20161;-90
2024/01/17 01:55:30;;;;;;;15.80;10.25;;;-0.80;99.10;;;;;;6155025;23;20165;-88
2024/01/17 01:58:13;;;;;;;12.10;9.43;;;-1.60;1.90;;;;;;6155419;23;20178;-89
2024/01/17 02:01:15;;;;;;;12.95;10.18;;;-1.90;15.40;;;;;;6155054;23;20244;-87
2024/01/17 02:04:18;;;;;;;16.25;10.38;;;-1.90;33.60;;;;;;6138641;23;20180;-88
2024/01/17 02:06:56;;;;;;;13.68;9.57;;;-1.70;58.90;;;;;;6133256;23;20275;-89
2024/01/17 02:10:01;;;;;;;13.40;8.77;;;-2.00;72.80;;;;;;6134061;23;20184;-89
2024/01/17 02:15:56;;;;;;;;;;;;;;;;;;;;;
2024/01/17 02:21:26;;;;;;;14.57;9.43;;;-1.90;1.00;;;;;;6118504;23;20184;-89
2024/01/17 02:24:22;;;;;;;16.63;8.02;;;-1.90;1.90;;;;;;6131100;23;20201;-89
2024/01/17 02:30:20;;;;;;;12.68;8.15;;;-1.90;62.20;;;;;;6128538;23;20509;-91
2024/01/17 02:36:19;;;;;;;17.02;9.15;;;-1.90;20.50;;;;;;6150764;23;20176;-89
2024/01/17 02:45:41;;;;;;;18.73;8.93;;;-2.00;40.70;;;;;;6126502;23;20181;-90
2024/01/17 02:48:33;;;;;;;18.45;8.80;;;-2.00;1.00;;;;;;6139770;23;20656;-90
2024/01/17 02:54:43;;;;;;;12.43;8.70;;;-2.00;45.20;;;;;;6107969;23;20203;-90
2024/01/17 02:58:22;;;;;;;;;;;;;;;;;;;;;
2024/01/17 03:07:28;;;;;;;14.38;8.93;;;-1.90;52.20;;;;;;6045328;23;20549;-83
2024/01/17 03:09:55;;;;;;;12.30;8.25;;;-1.90;1.00;;;;;;6134329;23;20652;-83
2024/01/17 03:12:22;;;;;;;13.82;9.48;;;-2.00;1.00;;;;;;6133711;23;20238;-83
2024/01/17 03:14:49;;;;;;;11.55;9.65;;;-2.10;1.00;;;;;;6134740;23;20689;-83
2024/01/17 03:17:16;;;;;;;15.00;9.10;;;-2.20;1.00;;;;;;6137647;23;20201;-84
2024/01/17 03:19:45;;;;;;;11.35;8.68;;;-2.20;1.00;;;;;;6139568;23;20188;-84
2024/01/17 03:22:13;;;;;;;15.82;9.20;;;-2.30;1.00;;;;;;6137451;23;20217;-83
2024/01/17 03:24:40;;;;;;;15.63;8.55;;;-2.30;14.10;;;;;;6134279;23;20204;-83
2024/01/17 03:27:07;;;;;;;11.18;8.65;;;-2.30;56.10;;;;;;6134322;23;20201;-83
2024/01/17 03:29:34;;;;;;;19.52;9.07;;;-2.30;25.70;;;;;;6130958;23;20181;-83
2024/01/17 03:32:01;;;;;;;16.42;9.73;;;-2.40;23.50;;;;;;6130058;23;20177;-84
2024/01/17 03:34:27;;;;;;;13.98;9.80;;;-2.40;55.30;;;;;;6129407;23;20268;-83
2024/01/17 03:36:56;;;;;;;13.70;9.43;;;-2.30;99.90;;;;;;6131246;23;20236;-82
2024/01/17 03:39:23;;;;;;;14.32;8.63;;;-2.20;90.80;;;;;;6132372;23;20524;-84
2024/01/17 03:41:49;;;;;;;14.40;9.75;;;-2.10;40.20;;;;;;6142906;23;20201;-83
2024/01/17 03:44:16;;;;;;;17.90;8.35;;;-2.00;19.60;;;;;;6145041;23;20223;-83
2024/01/17 03:46:43;;;;;;;13.57;10.00;;;-2.00;1.00;;;;;;6144650;23;20572;-85
2024/01/17 03:49:10;;;;;;;12.43;9.48;;;-2.00;1.00;;;;;;6134500;23;20177;-84
2024/01/17 03:51:36;;;;;;;21.95;9.00;;;-2.00;1.00;;;;;;6134704;23;20268;-84
2024/01/17 03:54:06;;;;;;;10.88;8.70;;;-2.00;1.00;;;;;;6134505;23;20204;-84
2024/01/17 03:56:32;;;;;;;14.60;10.52;;;-2.10;1.00;;;;;;6133953;23;20181;-84
2024/01/17 03:58:59;;;;;;;13.32;9.27;;;-2.00;1.00;;;;;;6133970;23;20200;-84
2024/01/17 04:01:26;;;;;;;16.10;10.55;;;-2.10;1.00;;;;;;6134591;23;20181;-84
2024/01/17 04:03:54;;;;;;;16.27;9.80;;;-2.10;1.00;;;;;;6133969;23;20252;-84
2024/01/17 04:06:20;;;;;;;17.02;9.75;;;-2.10;1.00;;;;;;6139572;23;20488;-83
2024/01/17 04:08:47;;;;;;;13.10;9.82;;;-2.10;1.00;;;;;;6142939;23;20205;-83
2024/01/17 04:11:15;;;;;;;20.42;14.00;;;-2.20;1.00;;;;;;6131493;23;20570;-84
2024/01/17 04:13:44;;;;;;;12.80;9.93;;;-2.20;1.00;;;;;;6132414;23;20233;-84
2024/01/17 04:16:11;;;;;;;11.82;8.88;;;-2.30;1.00;;;;;;6134009;23;20228;-84
2024/01/17 04:18:38;;;;;;;20.88;12.95;;;-2.40;1.00;;;;;;6135056;23;20197;-83
2024/01/17 04:21:05;;;;;;;20.45;13.55;;;-2.40;1.00;;;;;;6134412;23;20678;-84
2024/01/17 04:23:32;;;;;;;13.45;8.55;;;-2.40;1.00;;;;;;6134023;23;20204;-84
2024/01/17 04:25:59;;;;;;;17.38;9.07;;;-2.60;1.00;;;;;;6133515;23;20237;-84
2024/01/17 04:28:27;;;;;;;17.33;10.18;;;-2.60;1.00;;;;;;6135749;23;20301;-83
2024/01/17 04:30:54;;;;;;;11.88;7.82;;;-2.60;1.00;;;;;;6141677;23;20229;-82
2024/01/17 04:33:21;;;;;;;15.13;10.55;;;-2.60;1.00;;;;;;6146626;23;20177;-84
2024/01/17 04:35:48;;;;;;;14.02;10.23;;;-2.70;1.00;;;;;;6151961;23;20165;-84
2024/01/17 04:38:14;;;;;;;17.35;9.50;;;-2.60;1.00;;;;;;6153414;23;20192;-83
2024/01/17 04:40:41;;;;;;;25.83;12.25;;;-2.60;1.00;;;;;;6153317;23;20177;-84
2024/01/17 04:43:08;;;;;;;14.80;9.40;;;-2.60;1.00;;;;;;6152424;23;20217;-82
2024/01/17 04:45:36;;;;;;;10.27;8.50;;;-2.70;1.00;;;;;;6152237;23;20169;-83
2024/01/17 04:48:04;;;;;;;14.13;8.60;;;-2.70;1.00;;;;;;6151026;23;20212;-83
2024/01/17 04:50:31;;;;;;;14.48;10.02;;;-2.60;1.00;;;;;;6151796;23;20206;-83
2024/01/17 04:52:58;;;;;;;10.23;8.00;;;-2.60;1.00;;;;;;6150879;23;20188;-85
2024/01/17 04:55:25;;;;;;;14.25;9.15;;;-2.60;1.00;;;;;;6138054;23;20205;-85
2024/01/17 04:57:52;;;;;;;11.48;8.88;;;-2.70;1.00;;;;;;6137861;23;20200;-84
2024/01/17 05:00:19;;;;;;;12.45;9.02;;;-2.70;1.00;;;;;;6133965;23;20201;-84
2024/01/17 05:02:47;;;;;;;14.80;8.90;;;-2.70;1.00;;;;;;6133564;23;20280;-84
2024/01/17 05:05:14;;;;;;;16.42;8.45;;;-2.60;1.00;;;;;;6133645;23;20217;-84
2024/01/17 05:07:41;;;;;;;18.33;9.82;;;-2.60;1.00;;;;;;6133637;23;20209;-84
2024/01/17 05:10:09;;;;;;;13.32;9.30;;;-2.70;1.00;;;;;;6135470;23;20660;-82
2024/01/17 05:12:36;;;;;;;12.43;8.32;;;-2.60;1.00;;;;;;6136474;23;20180;-84
2024/01/17 05:15:03;;;;;;;10.13;7.88;;;-2.70;1.00;;;;;;6134957;23;20180;-84
2024/01/17 05:17:30;;;;;;;16.80;9.40;;;-2.70;1.00;;;;;;6138065;23;20200;-84
2024/01/17 05:19:58;;;;;;;11.07;8.43;;;-2.80;1.00;;;;;;6142003;23;20181;-84
2024/01/17 05:22:25;;;;;;;10.43;8.13;;;-2.80;1.00;;;;;;6143274;23;20181;-84
2024/01/17 05:24:52;;;;;;;13.52;9.02;;;-2.90;1.00;;;;;;6143866;23;20182;-83
2024/01/17 05:27:19;;;;;;;13.23;9.50;;;-2.90;1.00;;;;;;6142333;23;20201;-83
2024/01/17 05:29:46;;;;;;;15.57;10.02;;;-2.90;1.00;;;;;;6141259;23;20220;-83
2024/01/17 05:32:12;;;;;;;12.35;9.50;;;-2.90;1.00;;;;;;6139668;23;20181;-83
2024/01/17 05:34:42;;;;;;;10.38;8.30;;;-3.00;1.00;;;;;;6139318;23;20229;-84
2024/01/17 05:37:10;;;;;;;12.35;8.75;;;-3.00;1.00;;;;;;6140900;23;20205;-84
2024/01/17 05:39:37;;;;;;;15.18;9.05;;;-2.90;1.00;;;;;;6152667;23;20518;-84
2024/01/17 05:42:04;;;;;;;15.20;9.57;;;-2.90;1.00;;;;;;6149574;23;20181;-83
2024/01/17 05:44:31;;;;;;;13.88;9.45;;;-3.00;1.00;;;;;;6150913;23;20201;-83
2024/01/17 05:46:58;;;;;;;10.80;9.30;;;-3.00;1.00;;;;;;6138558;23;20514;-83
2024/01/17 05:49:25;;;;;;;14.38;9.13;;;-3.00;1.00;;;;;;6139358;23;20185;-83
2024/01/17 05:51:51;;;;;;;15.40;9.75;;;-3.00;1.00;;;;;;6136942;23;20188;-84
2024/01/17 05:54:20;;;;;;;17.08;10.80;;;-3.00;1.00;;;;;;6136194;23;20256;-85
2024/01/17 05:56:46;;;;;;;15.35;10.25;;;-2.90;1.00;;;;;;6138334;23;20683;-84
2024/01/17 05:59:14;;;;;;;14.00;8.38;;;-3.00;1.00;;;;;;6138055;23;20189;-85
2024/01/17 06:01:40;;;;;;;13.75;10.30;;;-3.00;1.00;;;;;;6149409;23;20188;-84
2024/01/17 06:04:07;;;;;;;13.82;10.18;;;-3.00;1.00;;;;;;6148112;23;20204;-84
2024/01/17 06:06:34;;;;;;;16.48;9.27;;;-3.00;1.00;;;;;;6144188;23;20568;-85
2024/01/17 06:09:01;;;;;;;14.63;10.38;;;-3.00;1.00;;;;;;6143181;23;20213;-85
2024/01/17 06:11:29;;;;;;;17.33;10.43;;;-3.10;1.00;;;;;;6142125;23;20666;-85
2024/01/17 06:13:56;;;;;;;10.40;8.82;;;-3.00;1.00;;;;;;6139609;23;20672;-85
2024/01/17 06:16:24;;;;;;;17.73;11.63;;;-3.00;1.00;;;;;;6138392;23;20556;-84
2024/01/17 06:18:51;;;;;;;14.40;10.75;;;-3.10;1.00;;;;;;6139599;23;20181;-84
2024/01/17 06:21:18;;;;;;;13.05;8.82;;;-3.10;1.00;;;;;;6143714;23;20664;-85
2024/01/17 06:23:45;;;;;;;14.35;9.45;;;-3.10;1.00;;;;;;6143834;23;20220;-84
2024/01/17 06:26:12;;;;;;;14.05;10.10;;;-3.10;1.00;;;;;;6142312;23;20177;-84
2024/01/17 06:28:40;;;;;;;17.15;10.40;;;-3.20;1.00;;;;;;6149914;23;20245;-82
2024/01/17 06:31:07;;;;;;;12.73;9.80;;;-3.20;1.00;;;;;;6155075;23;20174;-85
2024/01/17 06:33:34;;;;;;;15.90;8.80;;;-3.10;1.00;;;;;;6141853;23;20181;-85
2024/01/17 06:36:01;;;;;;;13.30;9.63;;;-3.20;1.00;;;;;;6138416;23;20181;-84
2024/01/17 06:38:28;;;;;;;19.00;10.32;;;-3.20;1.00;;;;;;6149744;23;20189;-85
2024/01/17 06:40:55;;;;;;;15.63;8.82;;;-3.30;1.00;;;;;;6145197;23;20179;-82
2024/01/17 06:43:21;;;;;;;19.52;10.25;;;-3.20;1.00;;;;;;6154360;23;20192;-83
2024/01/17 06:45:50;;;;;;;11.45;9.50;;;-3.30;1.00;;;;;;6140831;23;20165;-84
2024/01/17 06:48:17;;;;;;;18.92;10.85;;;-3.30;1.00;;;;;;6139709;23;20201;-84
2024/01/17 06:50:43;;;;;;;17.27;10.55;;;-3.20;1.00;;;;;;6135923;23;20212;-84
2024/01/17 06:53:11;;;;;;;10.73;8.90;;;-3.30;1.00;;;;;;6153630;23;20181;-83
2024/01/17 06:55:39;;;;;;;12.43;8.95;;;-3.20;1.00;;;;;;6154539;23;20196;-83
2024/01/17 06:58:06;;;;;;;14.07;10.55;;;-3.20;1.00;;;;;;6155080;23;20216;-83
2024/01/17 07:00:32;;;;;;;15.15;9.57;;;-3.30;1.00;;;;;;6155033;23;20153;-83
2024/01/17 07:03:01;;;;;;;12.50;9.55;;;-3.20;1.00;;;;;;6154919;23;20161;-85
2024/01/17 07:05:28;;;;;;;13.07;8.75;;;-3.30;1.00;;;;;;6154946;23;20229;-85
2024/01/17 07:07:55;;;;;;;14.70;9.20;;;-3.20;1.00;;;;;;6154351;23;20239;-83
2024/01/17 07:10:23;;;;;;;15.63;10.05;;;-3.10;1.00;;;;;;6154512;23;20165;-84
2024/01/17 07:12:50;;;;;;;16.58;9.45;;;-3.20;1.00;;;;;;6155062;23;20184;-84
2024/01/17 07:15:18;;;;;;;13.40;9.90;;;-3.20;1.00;;;;;;6142632;23;20213;-83
2024/01/17 07:17:44;;;;;;;15.30;9.18;;;-3.20;1.00;;;;;;6142591;23;20228;-84
2024/01/17 07:20:13;;;;;;;12.32;8.55;;;-3.10;1.00;;;;;;6137637;23;20188;-84
2024/01/17 07:22:41;;;;;;;11.25;8.35;;;-3.10;1.00;;;;;;6137457;23;20181;-86
2024/01/17 07:25:09;;;;;;;13.57;8.20;;;-3.10;1.00;;;;;;6133530;23;20204;-84
2024/01/17 07:27:36;;;;;;;12.65;8.02;;;-3.10;99.90;;;;;;6132282;23;20213;-87
2024/01/17 07:30:03;;;;;;;9.60;7.85;;;-3.10;99.90;;;;;;6137384;23;20168;-89
2024/01/17 07:32:30;;;;;;;16.13;8.90;;;-3.10;99.90;;;;;;6136287;23;20181;-88
2024/01/17 07:34:57;;;;;;;12.48;8.57;;;-3.10;99.90;;;;;;6136973;23;20173;-89
2024/01/17 07:37:26;;;;;;;11.82;8.18;;;-3.10;99.90;;;;;;6135872;23;20201;-88
2024/01/17 07:39:53;;;;;;;11.13;8.02;;;-3.10;99.90;;;;;;6134639;23;20244;-89
2024/01/17 07:42:21;;;;;;;13.25;8.10;;;-3.20;99.90;;;;;;6134313;23;20211;-88
2024/01/17 07:44:48;;;;;;;15.45;8.18;;;-3.10;99.90;;;;;;6134855;23;20230;-89
2024/01/17 07:47:15;;;;;;;10.60;7.18;;;-2.90;99.90;;;;;;6135011;23;20205;-88
2024/01/17 07:49:44;;;;;;;11.52;7.50;;;-3.10;99.90;;;;;;6133905;23;20180;-88
2024/01/17 07:52:11;;;;;;;13.27;8.77;;;-3.10;99.90;;;;;;6136467;23;20228;-88
2024/01/17 07:54:40;;;;;;;13.07;8.55;;;-3.10;99.90;;;;;;6147406;23;20625;-90
2024/01/17 07:57:07;;;;;;;8.68;7.78;;;-3.00;99.90;;;;;;6139391;23;20187;-87
2024/01/17 07:59:34;;;;;;;15.02;8.40;;;-2.80;99.90;;;;;;6136417;23;20181;-89
2024/01/17 08:02:02;;;;;;;8.85;7.78;;;-2.80;99.90;;;;;;6136552;23;20233;-88
2024/01/17 08:04:29;;;;;;;12.98;7.95;;;-2.90;99.90;;;;;;6146817;23;20189;-88
2024/01/17 08:06:56;;;;;;;10.32;7.50;;;-2.90;99.90;;;;;;6154485;23;20157;-88
2024/01/17 08:09:26;;;;;;;8.07;7.25;;;-2.80;99.90;;;;;;6151872;23;20177;-87
2024/01/17 08:11:56;;;;;;;10.45;7.55;;;-2.80;99.90;;;;;;6137196;23;20176;-86
2024/01/17 08:14:23;;;;;;;10.55;7.88;;;-2.70;95.80;;;;;;6136206;23;20197;-88
2024/01/17 08:16:51;;;;;;;12.68;7.45;;;-2.80;79.20;;;;;;6137293;23;20231;-88
2024/01/17 08:19:19;;;;;;;12.75;7.43;;;-2.70;99.90;;;;;;6139350;23;20525;-88
2024/01/17 08:21:47;;;;;;;6.85;6.15;;;-2.70;47.00;;;;;;6146025;23;20168;-88
2024/01/17 08:24:14;;;;;;;15.55;8.52;;;-2.70;4.20;;;;;;6139817;23;20193;-88
2024/01/17 08:26:42;;;;;;;13.05;8.07;;;-2.70;14.20;;;;;;6142624;23;20177;-88
2024/01/17 08:29:16;;;;;;;12.95;8.85;;;-2.70;19.90;;;;;;6153455;23;20208;-89
2024/01/17 08:31:43;;;;;;;11.85;7.43;;;-2.60;1.00;;;;;;6154592;23;20152;-88
2024/01/17 08:34:11;;;;;;;13.82;7.40;;;-2.60;1.00;;;;;;6154435;23;20197;-89
2024/01/17 08:36:38;;;;;;;10.75;8.05;;;-2.50;1.00;;;;;;6146074;23;20576;-88
2024/01/17 08:39:06;;;;;;;9.43;6.97;;;-2.40;1.00;;;;;;6136304;23;20208;-88
2024/01/17 08:41:33;;;;;;;11.10;7.90;;;-2.50;1.00;;;;;;6139841;23;20187;-88
2024/01/17 08:44:01;;;;;;;11.23;7.15;;;-2.50;1.00;;;;;;6136320;23;20193;-89
2024/01/17 08:46:29;;;;;;;9.82;7.40;;;-1.90;1.00;;;;;;6135161;23;20177;-89
2024/01/17 08:48:56;;;;;;;14.32;7.70;;;-2.40;1.00;;;;;;6144218;23;20197;-87
2024/01/17 08:51:24;;;;;;;9.25;7.30;;;-2.30;1.00;;;;;;6138371;23;20177;-88
2024/01/17 08:53:52;;;;;;;11.82;6.35;;;-1.70;1.00;;;;;;6140115;23;20174;-88
2024/01/17 08:56:20;;;;;;;9.07;7.30;;;-2.40;1.00;;;;;;6137808;23;20185;-88
2024/01/17 08:58:47;;;;;;;13.90;7.60;;;-2.40;1.00;;;;;;6139084;23;20200;-88
2024/01/17 09:01:14;;;;;;;9.68;7.18;;;-2.30;1.00;;;;;;6153810;23;20181;-88
2024/01/17 09:03:43;;;;;;;9.00;6.25;;;-2.30;1.00;;;;;;6155412;23;20223;-88
2024/01/17 09:06:10;;;;;;;13.07;7.75;;;-2.30;1.00;;;;;;6146738;23;20236;-87
2024/01/17 09:08:38;;;;;;;11.57;6.78;;;-2.40;1.00;;;;;;6141554;23;20197;-88
2024/01/17 09:11:05;;;;;;;13.35;8.05;;;-2.50;1.00;;;;;;6139014;23;20177;-88
2024/01/17 09:13:32;;;;;;;13.18;6.65;;;-2.40;1.00;;;;;;6140309;23;20173;-87
2024/01/17 09:16:01;;;;;;;8.38;6.50;;;-2.40;1.00;;;;;;6147532;23;20208;-88
2024/01/17 09:18:29;;;;;;;11.15;7.55;;;-2.30;1.00;;;;;;6151683;23;20279;-88
2024/01/17 09:20:57;;;;;;;11.32;6.47;;;-2.30;1.00;;;;;;6153703;23;20165;-88
2024/01/17 09:23:24;;;;;;;11.25;6.85;;;-2.20;1.00;;;;;;6155219;23;20165;-87
2024/01/17 09:25:52;;;;;;;10.50;6.65;;;-2.10;1.00;;;;;;6155441;23;20165;-87
2024/01/17 09:28:19;;;;;;;13.70;8.65;;;-2.20;1.00;;;;;;6154727;23;20236;-88
2024/01/17 09:33:21;;;;;;;12.50;8.10;;;-2.20;1.00;;;;;;6124074;23;20205;-87
2024/01/17 09:35:48;;;;;;;11.93;8.60;;;-2.20;1.00;;;;;;6144478;23;20176;-88
2024/01/17 09:38:19;;;;;;;13.27;8.82;;;-2.10;1.00;;;;;;6151807;23;20198;-88
2024/01/17 09:40:49;;;;;;;12.02;8.25;;;-1.90;1.00;;;;;;6141597;23;20213;-87
2024/01/17 09:43:17;;;;;;;13.63;7.63;;;-1.90;1.00;;;;;;6140305;23;20181;-87
2024/01/17 12:18:44;;;;;;;14.95;8.35;;;0.10;32.80;;;;;;6125312;23;20291;-86
2024/01/17 12:21:11;;;;;;;11.50;9.07;;;0.10;36.10;;;;;;6135510;23;20187;-86
2024/01/17 12:23:38;;;;;;;12.23;7.30;;;0.10;19.90;;;;;;6133971;23;20192;-85
2024/01/17 12:26:05;;;;;;;14.65;9.20;;;0.10;11.60;;;;;;6132873;23;20180;-85
2024/01/17 12:28:32;;;;;;;12.52;9.65;;;0.10;15.20;;;;;;6141374;23;20201;-84
2024/01/17 13:30:36;;;;;;;8.00;7.03;;;0.20;1.00;;;;;;6080591;23;20200;-85
2024/01/17 13:33:05;;;;;;;8.65;7.15;;;0.30;1.00;;;;;;6146091;23;20165;-85
2024/01/17 13:35:33;;;;;;;9.45;8.02;;;0.20;1.00;;;;;;6143234;23;20621;-85
2024/01/17 13:38:01;;;;;;;15.32;8.10;;;0.30;5.00;;;;;;6138168;23;20181;-85
2024/01/17 13:40:28;;;;;;;13.27;8.10;;;0.30;8.90;;;;;;6138181;23;20228;-84
2024/01/17 13:42:55;;;;;;;8.90;7.97;;;0.30;29.10;;;;;;6135683;23;20180;-85
2024/01/17 13:45:22;;;;;;;12.73;8.20;;;0.40;23.60;;;;;;6136950;23;20205;-86
2024/01/17 13:47:52;;;;;;;13.88;7.38;;;0.30;1.00;;;;;;6136827;23;20181;-87
2024/01/17 13:50:22;;;;;;;11.70;7.28;;;0.20;1.00;;;;;;6136457;23;20256;-87
2024/01/17 13:52:52;;;;;;;12.57;8.10;;;0.20;27.10;;;;;;6140717;23;20181;-88
2024/01/17 13:55:22;;;;;;;12.95;7.47;;;0.20;4.90;;;;;;6156011;23;20192;-87
2024/01/17 13:57:49;;;;;;;11.35;8.35;;;0.20;19.80;;;;;;6149186;23;20171;-89
2024/01/17 14:00:19;;;;;;;9.77;8.00;;;0.30;24.20;;;;;;6138093;23;20181;-88
2024/01/17 14:02:46;;;;;;;9.13;6.85;;;0.30;19.80;;;;;;6137512;23;20189;-88
2024/01/17 14:05:15;;;;;;;16.98;8.32;;;0.20;1.00;;;;;;6136822;23;20197;-88
2024/01/17 14:07:43;;;;;;;10.52;8.32;;;0.30;1.00;;;;;;6136488;23;20173;-88
2024/01/17 14:10:11;;;;;;;13.50;6.78;;;0.30;13.40;;;;;;6134696;23;20181;-88
2024/01/17 14:12:39;;;;;;;10.85;8.35;;;0.30;1.00;;;;;;6140896;23;20249;-87
2024/01/17 14:15:08;;;;;;;9.70;7.47;;;0.20;1.00;;;;;;6153467;23;20196;-86
2024/01/17 14:17:36;;;;;;;11.95;9.52;;;0.30;17.70;;;;;;6144658;23;20173;-88
2024/01/17 14:20:04;;;;;;;12.95;9.15;;;0.30;24.30;;;;;;6134825;23;20185;-88
2024/01/17 14:22:33;;;;;;;12.40;7.90;;;0.40;14.30;;;;;;6135069;23;20187;-88
2024/01/17 14:25:00;;;;;;;14.88;11.38;;;0.40;14.80;;;;;;6135052;23;20201;-88
2024/01/17 14:27:29;;;;;;;12.02;8.50;;;0.30;1.00;;;;;;6142420;23;20173;-87
2024/01/17 14:29:56;;;;;;;12.98;7.75;;;0.30;1.00;;;;;;6154994;23;20165;-87
2024/01/17 14:32:23;;;;;;;13.82;7.45;;;0.50;1.00;;;;;;6154506;23;20204;-88
2024/01/17 14:34:50;;;;;;;14.38;8.50;;;0.30;1.00;;;;;;6150473;23;20197;-87
2024/01/17 14:37:17;;;;;;;11.70;9.50;;;0.20;1.00;;;;;;6136972;23;20201;-88
2024/01/17 14:39:47;;;;;;;13.35;9.55;;;0.20;1.30;;;;;;6136759;23;20199;-88
2024/01/17 14:42:21;;;;;;;9.60;7.88;;;0.40;29.30;;;;;;6140521;23;20188;-88
2024/01/17 14:44:48;;;;;;;14.40;9.35;;;0.40;7.00;;;;;;6146633;23;20188;-88
2024/01/17 14:47:15;;;;;;;10.25;8.20;;;0.20;11.10;;;;;;6155091;23;20165;-89
2024/01/17 14:49:42;;;;;;;15.85;11.55;;;0.20;33.30;;;;;;6155107;23;20188;-88
2024/01/17 14:52:13;;;;;;;13.73;9.30;;;0.20;19.40;;;;;;6155098;23;20149;-89
2024/01/17 14:54:40;;;;;;;12.00;8.30;;;0.30;39.30;;;;;;6152267;23;20257;-87
2024/01/17 14:57:09;;;;;;;13.73;8.82;;;0.30;85.70;;;;;;6150314;23;20165;-88
2024/01/17 14:59:49;;;;;;;16.67;9.90;;;0.20;90.30;;;;;;6152618;23;20169;-88
2024/01/17 15:02:22;;;;;;;12.38;8.65;;;0.20;99.90;;;;;;6148574;23;20212;-89
2024/01/17 15:08:08;;;;;;;;;;;;;;;;;;;;;
2024/01/17 15:10:38;;;;;;;13.50;9.10;;;0.10;99.90;;;;;;6148774;23;20191;-89
2024/01/17 15:13:06;;;;;;;10.55;8.18;;;0.00;99.90;;;;;;6143504;23;20177;-88
2024/01/17 15:15:33;;;;;;;13.70;10.10;;;0.00;99.90;;;;;;6154705;23;20201;-87
2024/01/17 15:18:04;;;;;;;19.70;10.57;;;0.00;99.90;;;;;;6146664;23;20232;-87
2024/01/17 15:20:31;;;;;;;14.05;9.90;;;0.00;99.90;;;;;;6137426;23;20165;-87
2024/01/17 15:22:58;;;;;;;12.63;9.82;;;-0.10;99.90;;;;;;6137083;23;20264;-88
2024/01/17 15:25:25;;;;;;;13.70;10.68;;;-0.10;99.90;;;;;;6139337;23;20210;-89
2024/01/17 15:27:53;;;;;;;20.38;11.20;;;0.00;99.90;;;;;;6138423;23;20515;-88
2024/01/17 15:30:21;;;;;;;14.27;9.02;;;-0.10;99.90;;;;;;6136628;23;20188;-86
2024/01/17 15:32:50;;;;;;;11.38;9.68;;;0.00;99.90;;;;;;6133776;23;20671;-88
2024/01/17 15:35:17;;;;;;;14.15;10.57;;;0.00;99.90;;;;;;6133703;23;20532;-87
2024/01/17 15:37:44;;;;;;;13.75;9.10;;;0.00;99.90;;;;;;6134954;23;20188;-88
2024/01/17 15:40:12;;;;;;;12.80;9.48;;;0.00;99.90;;;;;;6136718;23;20192;-87
2024/01/17 15:42:41;;;;;;;13.48;10.90;;;0.00;99.90;;;;;;6134348;23;20236;-89
2024/01/17 15:45:08;;;;;;;22.55;12.18;;;0.00;99.90;;;;;;6134326;23;20265;-88
2024/01/17 15:47:36;;;;;;;19.55;10.45;;;-0.10;99.90;;;;;;6135454;23;20182;-88
2024/01/17 15:50:04;;;;;;;15.27;10.00;;;-0.20;99.90;;;;;;6136142;23;20181;-89
2024/01/17 15:52:32;;;;;;;14.57;10.13;;;-0.10;99.90;;;;;;6135584;23;20184;-88
2024/01/17 15:54:59;;;;;;;10.55;8.60;;;0.00;99.90;;;;;;6133588;23;20504;-88
2024/01/17 15:57:26;;;;;;;11.02;9.18;;;-0.10;99.90;;;;;;6134356;23;20221;-88
2024/01/17 15:59:53;;;;;;;13.90;10.32;;;-0.10;99.90;;;;;;6133597;23;20192;-88
2024/01/17 16:02:20;;;;;;;11.75;10.43;;;0.00;99.90;;;;;;6133149;23;20181;-88
2024/01/17 16:04:48;;;;;;;15.77;10.98;;;0.00;99.90;;;;;;6136481;23;20209;-88
2024/01/17 16:07:18;;;;;;;15.05;10.75;;;0.00;99.90;;;;;;6146722;23;20181;-88
2024/01/17 16:09:47;;;;;;;16.73;10.07;;;0.00;99.90;;;;;;6137395;23;20523;-88
2024/01/17 16:12:14;;;;;;;16.55;11.23;;;0.00;99.90;;;;;;6152903;23;20186;-86
2024/01/17 16:14:41;;;;;;;16.40;12.20;;;-0.10;99.90;;;;;;6151687;23;20204;-87
2024/01/17 16:17:08;;;;;;;14.23;11.18;;;-0.10;99.90;;;;;;6136991;23;20200;-88
2024/01/17 16:19:35;;;;;;;11.98;10.45;;;-0.10;99.90;;;;;;6134626;23;20544;-88
2024/01/17 16:22:04;;;;;;;13.82;10.15;;;0.00;99.90;;;;;;6134987;23;20188;-88
2024/01/17 16:24:31;;;;;;;13.50;10.45;;;0.00;99.90;;;;;;6135304;23;20197;-88
2024/01/17 16:26:58;;;;;;;13.93;9.60;;;0.10;99.90;;;;;;6132333;23;20197;-88
2024/01/17 16:29:25;;;;;;;16.73;9.07;;;0.00;99.90;;;;;;6133193;23;20181;-87
2024/01/17 16:31:52;;;;;;;12.65;9.20;;;0.00;99.90;;;;;;6133657;23;20181;-87
2024/01/17 16:34:19;;;;;;;13.48;9.88;;;0.00;99.90;;;;;;6138794;23;20199;-88
2024/01/17 16:36:45;;;;;;;16.60;10.75;;;0.00;99.90;;;;;;6150110;23;20172;-89
2024/01/17 16:39:17;;;;;;;14.85;10.27;;;0.00;99.90;;;;;;6151851;23;20180;-88
2024/01/17 16:41:44;;;;;;;13.30;8.55;;;0.10;99.90;;;;;;6152481;23;20165;-87
2024/01/17 16:44:11;;;;;;;14.43;9.35;;;0.00;99.90;;;;;;6152639;23;20205;-87
2024/01/17 16:46:38;;;;;;;17.27;8.98;;;0.00;99.90;;;;;;6154393;23;20193;-86
2024/01/17 16:49:05;;;;;;;11.95;9.52;;;0.10;99.90;;;;;;6140569;23;20207;-87
2024/01/17 16:51:32;;;;;;;14.13;10.20;;;0.00;99.90;;;;;;6134641;23;20256;-88
2024/01/17 16:53:59;;;;;;;13.50;10.52;;;0.00;99.90;;;;;;6135861;23;20201;-88
2024/01/17 16:56:27;;;;;;;13.90;9.05;;;0.10;99.90;;;;;;6143304;23;20177;-87
2024/01/17 16:58:54;;;;;;;13.13;9.15;;;0.00;99.90;;;;;;6142895;23;20636;-87
2024/01/17 17:01:21;;;;;;;11.45;9.60;;;0.10;99.90;;;;;;6135783;23;20243;-88
2024/01/17 17:03:48;;;;;;;14.52;9.93;;;0.10;99.90;;;;;;6136103;23;20201;-88
2024/01/17 17:06:15;;;;;;;11.05;9.98;;;0.00;99.90;;;;;;6152836;23;20232;-88
2024/01/17 17:08:42;;;;;;;13.07;9.55;;;0.00;99.90;;;;;;6152629;23;20201;-88
2024/01/17 17:11:09;;;;;;;12.90;10.02;;;-0.10;99.90;;;;;;6151629;23;20168;-88
2024/01/17 17:13:37;;;;;;;16.58;10.65;;;0.00;99.90;;;;;;6142588;23;20228;-89
2024/01/17 17:16:06;;;;;;;14.27;10.48;;;0.00;99.90;;;;;;6136350;23;20184;-88
2024/01/17 17:18:33;;;;;;;11.68;10.07;;;0.00;99.90;;;;;;6134532;23;20233;-88
2024/01/17 17:21:00;;;;;;;12.95;9.80;;;0.10;99.90;;;;;;6135916;23;20181;-88
2024/01/17 17:23:28;;;;;;;14.98;10.38;;;0.00;99.90;;;;;;6149164;23;20240;-88
2024/01/17 17:25:56;;;;;;;11.35;10.10;;;0.10;99.90;;;;;;6138086;23;20197;-88
2024/01/17 17:28:23;;;;;;;12.48;10.25;;;0.10;99.90;;;;;;6138124;23;20200;-88
2024/01/17 17:30:52;;;;;;;14.13;10.35;;;0.10;99.90;;;;;;6135920;23;20184;-88
2024/01/17 17:33:19;;;;;;;15.27;9.55;;;0.10;99.90;;;;;;6134208;23;20205;-88
2024/01/17 17:35:47;;;;;;;14.70;10.02;;;0.10;99.90;;;;;;6135534;23;20173;-89
2024/01/17 17:38:14;;;;;;;13.60;10.07;;;0.10;99.90;;;;;;6135318;23;20185;-88
2024/01/17 17:40:41;;;;;;;14.10;10.43;;;0.00;99.90;;;;;;6134750;23;20219;-88
2024/01/17 17:43:08;;;;;;;13.18;10.05;;;-0.10;99.90;;;;;;6136999;23;20173;-88
2024/01/17 17:45:35;;;;;;;18.50;10.38;;;-0.10;1.00;;;;;;6135409;23;20215;-88
2024/01/17 17:48:04;;;;;;;19.35;13.77;;;-0.20;99.90;;;;;;6136559;23;20228;-88
2024/01/17 17:50:31;;;;;;;15.05;10.77;;;-0.30;1.00;;;;;;6134640;23;20184;-88
2024/01/17 17:53:03;;;;;;;18.60;12.88;;;-0.30;1.00;;;;;;6137122;23;20181;-88